»·PEaware :: N2RC KSBA-KSMO

N2RC :: KSBA-KSMO

FLIGHT INFORMATION

Flight Status: Arrived
Operator: Privately registered:
United States
More flights under this callsign
Pilot: Reinaldo C. (26424)
Aircraft: Unknown
(DHC8)
More flights by this aircraft type
Origin: KSBA Santa Barbara Mun
United States
Destination: KSMO Santa Monica Mun
United States
More flights between these airports :: More routes between these airports
Route: +HENER FIM V186 DARTS
File this flight plan on PilotEdge
Remarks: TEC ROUTE SBAP13
Altitude:
(Current/Filed)
9,000ft
Speed:
(Current/Filed)
320kts
Departed: 21-Oct-20 12:43 PM
Arrived: 21-Oct-20 01:14 PM
Distance/Time
Traveled:
73nm/0:31
Distance/Time
To Go:
Arrived

Flight Plot

Page will automatically refresh every two minutes.


Map Options




Map Legend


Flown Route
Filed Route
Departure Airport
Arrival Airport
Navaid (VOR, NDB)
Fix

Horizontal Profiles

Position Reports

Time Latitude Longitude Heading Altitude Ground
Speed
21-Oct-20 12:23 34.422260 -119.836426 344 17ft 0kts
21-Oct-20 12:24 34.422260 -119.836426 344 17ft 0kts
21-Oct-20 12:25 34.422260 -119.836426 344 17ft 0kts
21-Oct-20 12:26 34.422260 -119.836426 344 17ft 0kts
21-Oct-20 12:27 34.422260 -119.836426 344 17ft 0kts
21-Oct-20 12:28 34.422260 -119.836426 344 17ft 0kts
21-Oct-20 12:29 34.422260 -119.836426 344 17ft 0kts
21-Oct-20 12:30 34.422260 -119.836426 344 17ft 0kts
21-Oct-20 12:31 34.422260 -119.836426 344 17ft 0kts
21-Oct-20 12:32 34.422260 -119.836426 344 17ft 0kts
21-Oct-20 12:33 34.422260 -119.836426 344 17ft 0kts
21-Oct-20 12:34 34.422260 -119.836426 344 17ft 0kts
21-Oct-20 12:35 34.422248 -119.836422 344 17ft 0kts
21-Oct-20 12:36 34.423543 -119.837362 351 17ft 0kts
21-Oct-20 12:37 34.428405 -119.838844 345 17ft 0kts
21-Oct-20 12:38 34.430611 -119.839606 304 17ft 0kts
21-Oct-20 12:39 34.430345 -119.840762 245 17ft 0kts
21-Oct-20 12:40 34.430345 -119.840762 245 17ft 0kts
21-Oct-20 12:41 34.430221 -119.841407 172 17ft 0kts
21-Oct-20 12:42 34.408042 -119.834870 167 615ft 153kts
21-Oct-20 12:43 34.358870 -119.822749 168 2917ft 203kts
21-Oct-20 12:44 34.290851 -119.801927 166 3218ft 257kts
21-Oct-20 12:45 34.244266 -119.754744 100 4803ft 228kts
21-Oct-20 12:46 34.242343 -119.667255 89 5022ft 271kts
21-Oct-20 12:47 34.241372 -119.581929 91 4985ft 247kts
21-Oct-20 12:48 34.240366 -119.499595 90 5039ft 245kts
21-Oct-20 12:49 34.239283 -119.417448 91 5023ft 245kts
21-Oct-20 12:50 34.237938 -119.337799 93 5039ft 239kts
21-Oct-20 12:51 34.236872 -119.254672 90 6293ft 270kts
21-Oct-20 12:52 34.235577 -119.166148 91 7815ft 262kts
21-Oct-20 12:53 34.234498 -119.082917 92 8986ft 271kts
21-Oct-20 12:54 34.232999 -118.988276 92 9033ft 298kts
21-Oct-20 12:55 34.231452 -118.888449 90 9009ft 305kts
21-Oct-20 12:56 34.230008 -118.790387 93 9020ft 294kts
21-Oct-20 12:57 34.228112 -118.695089 92 8743ft 289kts
21-Oct-20 12:58 34.225989 -118.601146 91 7656ft 272kts
21-Oct-20 12:59 34.224001 -118.514993 91 6373ft 250kts
21-Oct-20 13:00 34.208636 -118.441527 110 5081ft 200kts
21-Oct-20 13:01 34.191980 -118.387636 109 5005ft 160kts
21-Oct-20 13:02 34.175719 -118.334134 110 5004ft 163kts
21-Oct-20 13:03 34.143305 -118.311376 210 4979ft 146kts
21-Oct-20 13:04 34.114347 -118.347559 270 5441ft 182kts
21-Oct-20 13:05 34.150769 -118.360291 41 5019ft 171kts
21-Oct-20 13:06 34.185051 -118.318607 68 4989ft 178kts
21-Oct-20 13:07 34.166330 -118.267178 161 4642ft 189kts
21-Oct-20 13:08 34.129802 -118.304111 238 4023ft 191kts
21-Oct-20 13:09 34.097796 -118.352921 227 2046ft 182kts
21-Oct-20 13:10 34.061473 -118.397730 223 1397ft 181kts
21-Oct-20 13:11 34.030644 -118.433882 223 690ft 135kts
21-Oct-20 13:12 34.013593 -118.453985 224 182ft 56kts
21-Oct-20 13:13 34.015898 -118.452743 334 182ft 0kts

Navigation Log

Ident Type
Flight plan parsing failed, navigation log unavailable